sensor_id;sensor_type;location;lat;lon;timestamp;pressure;altitude;pressure_sealevel;temperature;humidity
7930;BME280;4010;42.698;23.124;2023-01-29T00:00:52;118349.16;;;-140.64;100.00
7930;BME280;4010;42.698;23.124;2023-01-29T00:03:19;118349.16;;;-140.64;100.00
7930;BME280;4010;42.698;23.124;2023-01-29T00:05:45;118349.16;;;-140.64;100.00
7930;BME280;4010;42.698;23.124;2023-01-29T00:08:13;118349.16;;;-140.64;100.00
7930;BME280;4010;42.698;23.124;2023-01-29T00:10:39;118349.16;;;-140.64;100.00
7930;BME280;4010;42.698;23.124;2023-01-29T00:13:07;118349.16;;;-140.64;100.00
7930;BME280;4010;42.698;23.124;2023-01-29T00:15:34;118349.16;;;-140.64;100.00
7930;BME280;4010;42.698;23.124;2023-01-29T00:18:01;118349.16;;;-140.64;100.00
7930;BME280;4010;42.698;23.124;2023-01-29T00:20:27;118349.16;;;-140.64;100.00
7930;BME280;4010;42.698;23.124;2023-01-29T00:22:54;118349.16;;;-140.64;100.00
7930;BME280;4010;42.698;23.124;2023-01-29T00:25:21;118349.16;;;-140.64;100.00
7930;BME280;4010;42.698;23.124;2023-01-29T00:27:47;118349.16;;;-140.64;100.00
7930;BME280;4010;42.698;23.124;2023-01-29T00:30:16;118349.16;;;-140.64;100.00
7930;BME280;4010;42.698;23.124;2023-01-29T00:32:43;118349.16;;;-140.64;100.00
7930;BME280;4010;42.698;23.124;2023-01-29T00:35:10;118349.16;;;-140.64;100.00
7930;BME280;4010;42.698;23.124;2023-01-29T00:37:37;118349.16;;;-140.64;100.00
7930;BME280;4010;42.698;23.124;2023-01-29T00:40:05;118349.16;;;-140.64;100.00
7930;BME280;4010;42.698;23.124;2023-01-29T00:42:32;118349.16;;;-140.64;100.00
7930;BME280;4010;42.698;23.124;2023-01-29T00:45:17;118349.16;;;-140.64;100.00
7930;BME280;4010;42.698;23.124;2023-01-29T00:47:44;118349.16;;;-140.64;100.00
7930;BME280;4010;42.698;23.124;2023-01-29T00:50:11;118349.16;;;-140.64;100.00
7930;BME280;4010;42.698;23.124;2023-01-29T00:52:39;118349.16;;;-140.64;100.00
7930;BME280;4010;42.698;23.124;2023-01-29T00:55:07;118349.16;;;-140.64;100.00
7930;BME280;4010;42.698;23.124;2023-01-29T00:57:35;118349.16;;;-140.64;100.00
7930;BME280;4010;42.698;23.124;2023-01-29T01:00:03;118349.16;;;-140.64;100.00
7930;BME280;4010;42.698;23.124;2023-01-29T01:02:31;118349.16;;;-140.64;100.00
7930;BME280;4010;42.698;23.124;2023-01-29T01:05:16;118349.16;;;-140.64;100.00
7930;BME280;4010;42.698;23.124;2023-01-29T01:07:44;118349.16;;;-140.64;100.00
7930;BME280;4010;42.698;23.124;2023-01-29T01:10:13;118349.16;;;-140.64;100.00
7930;BME280;4010;42.698;23.124;2023-01-29T01:12:45;118349.16;;;-140.64;100.00
7930;BME280;4010;42.698;23.124;2023-01-29T01:15:12;118349.16;;;-140.64;100.00
7930;BME280;4010;42.698;23.124;2023-01-29T01:17:40;118349.16;;;-140.64;100.00
7930;BME280;4010;42.698;23.124;2023-01-29T01:20:09;118349.16;;;-140.64;100.00
7930;BME280;4010;42.698;23.124;2023-01-29T01:22:35;118349.16;;;-140.64;100.00
7930;BME280;4010;42.698;23.124;2023-01-29T01:25:02;118349.16;;;-140.64;100.00
7930;BME280;4010;42.698;23.124;2023-01-29T01:27:29;118349.16;;;-140.64;100.00
7930;BME280;4010;42.698;23.124;2023-01-29T01:29:56;118349.16;;;-140.64;100.00
7930;BME280;4010;42.698;23.124;2023-01-29T01:32:23;118349.16;;;-140.64;100.00
7930;BME280;4010;42.698;23.124;2023-01-29T01:34:52;118349.16;;;-140.64;100.00
7930;BME280;4010;42.698;23.124;2023-01-29T01:37:18;118349.16;;;-140.64;100.00
7930;BME280;4010;42.698;23.124;2023-01-29T01:39:45;118349.16;;;-140.64;100.00
7930;BME280;4010;42.698;23.124;2023-01-29T01:42:13;118349.16;;;-140.64;100.00
7930;BME280;4010;42.698;23.124;2023-01-29T01:44:57;118349.16;;;-140.64;100.00
7930;BME280;4010;42.698;23.124;2023-01-29T01:47:30;118349.16;;;-140.64;100.00
7930;BME280;4010;42.698;23.124;2023-01-29T01:50:05;118349.16;;;-140.64;100.00
7930;BME280;4010;42.698;23.124;2023-01-29T01:52:35;118349.16;;;-140.64;100.00
7930;BME280;4010;42.698;23.124;2023-01-29T01:55:06;118349.16;;;-140.64;100.00
7930;BME280;4010;42.698;23.124;2023-01-29T01:57:34;118349.16;;;-140.64;100.00
7930;BME280;4010;42.698;23.124;2023-01-29T02:00:06;118349.16;;;-140.64;100.00
7930;BME280;4010;42.698;23.124;2023-01-29T02:02:36;118349.16;;;-140.64;100.00
7930;BME280;4010;42.698;23.124;2023-01-29T02:05:22;118349.16;;;-140.64;100.00
7930;BME280;4010;42.698;23.124;2023-01-29T02:08:07;118349.16;;;-140.64;100.00
7930;BME280;4010;42.698;23.124;2023-01-29T02:10:52;118349.16;;;-140.64;100.00
7930;BME280;4010;42.698;23.124;2023-01-29T02:13:18;118349.16;;;-140.64;100.00
7930;BME280;4010;42.698;23.124;2023-01-29T02:15:45;118349.16;;;-140.64;100.00
7930;BME280;4010;42.698;23.124;2023-01-29T02:18:14;118349.16;;;-140.64;100.00
7930;BME280;4010;42.698;23.124;2023-01-29T02:20:48;118349.16;;;-140.64;100.00
7930;BME280;4010;42.698;23.124;2023-01-29T02:23:51;118349.16;;;-140.64;100.00
7930;BME280;4010;42.698;23.124;2023-01-29T02:26:38;118349.16;;;-140.64;100.00
7930;BME280;4010;42.698;23.124;2023-01-29T02:29:09;118349.16;;;-140.64;100.00
7930;BME280;4010;42.698;23.124;2023-01-29T02:31:57;118349.16;;;-140.64;100.00
7930;BME280;4010;42.698;23.124;2023-01-29T02:34:35;118349.16;;;-140.64;100.00
7930;BME280;4010;42.698;23.124;2023-01-29T02:37:28;118349.16;;;-140.64;100.00
7930;BME280;4010;42.698;23.124;2023-01-29T02:40:06;118349.16;;;-140.64;100.00
7930;BME280;4010;42.698;23.124;2023-01-29T02:42:38;118349.16;;;-140.64;100.00
7930;BME280;4010;42.698;23.124;2023-01-29T02:45:13;118349.16;;;-140.64;100.00
7930;BME280;4010;42.698;23.124;2023-01-29T02:47:47;118349.16;;;-140.64;100.00
7930;BME280;4010;42.698;23.124;2023-01-29T02:50:19;118349.16;;;-140.64;100.00
7930;BME280;4010;42.698;23.124;2023-01-29T02:52:51;118349.16;;;-140.64;100.00
7930;BME280;4010;42.698;23.124;2023-01-29T02:55:24;118349.16;;;-140.64;100.00
7930;BME280;4010;42.698;23.124;2023-01-29T02:57:56;118349.16;;;-140.64;100.00
7930;BME280;4010;42.698;23.124;2023-01-29T03:00:29;118349.16;;;-140.64;100.00
7930;BME280;4010;42.698;23.124;2023-01-29T03:03:02;118349.16;;;-140.64;100.00
7930;BME280;4010;42.698;23.124;2023-01-29T03:05:34;118349.16;;;-140.64;100.00
7930;BME280;4010;42.698;23.124;2023-01-29T03:08:06;118349.16;;;-140.64;100.00
7930;BME280;4010;42.698;23.124;2023-01-29T03:10:38;118349.16;;;-140.64;100.00
7930;BME280;4010;42.698;23.124;2023-01-29T03:13:09;118349.16;;;-140.64;100.00
7930;BME280;4010;42.698;23.124;2023-01-29T03:15:42;118349.16;;;-140.64;100.00
7930;BME280;4010;42.698;23.124;2023-01-29T03:18:15;118349.16;;;-140.64;100.00
7930;BME280;4010;42.698;23.124;2023-01-29T03:20:45;118349.16;;;-140.64;100.00
7930;BME280;4010;42.698;23.124;2023-01-29T03:23:18;118349.16;;;-140.64;100.00
7930;BME280;4010;42.698;23.124;2023-01-29T03:25:50;118349.16;;;-140.64;100.00
7930;BME280;4010;42.698;23.124;2023-01-29T03:28:36;118349.16;;;-140.64;100.00
7930;BME280;4010;42.698;23.124;2023-01-29T03:31:25;118349.16;;;-140.64;100.00
7930;BME280;4010;42.698;23.124;2023-01-29T03:34:13;118349.16;;;-140.64;100.00
7930;BME280;4010;42.698;23.124;2023-01-29T03:36:50;118349.16;;;-140.64;100.00
7930;BME280;4010;42.698;23.124;2023-01-29T03:39:20;118349.16;;;-140.64;100.00
7930;BME280;4010;42.698;23.124;2023-01-29T03:41:52;118349.16;;;-140.64;100.00
7930;BME280;4010;42.698;23.124;2023-01-29T03:44:29;118349.16;;;-140.64;100.00
7930;BME280;4010;42.698;23.124;2023-01-29T03:47:08;118349.16;;;-140.64;100.00
7930;BME280;4010;42.698;23.124;2023-01-29T03:49:43;118349.16;;;-140.64;100.00
7930;BME280;4010;42.698;23.124;2023-01-29T03:52:18;118349.16;;;-140.64;100.00
7930;BME280;4010;42.698;23.124;2023-01-29T03:54:53;118349.16;;;-140.64;100.00
7930;BME280;4010;42.698;23.124;2023-01-29T03:57:30;118349.16;;;-140.64;100.00
7930;BME280;4010;42.698;23.124;2023-01-29T04:00:04;118349.16;;;-140.64;100.00
7930;BME280;4010;42.698;23.124;2023-01-29T04:02:40;118349.16;;;-140.64;100.00
7930;BME280;4010;42.698;23.124;2023-01-29T04:05:13;118349.16;;;-140.64;100.00
7930;BME280;4010;42.698;23.124;2023-01-29T04:07:43;118349.16;;;-140.64;100.00
7930;BME280;4010;42.698;23.124;2023-01-29T04:10:13;118349.16;;;-140.64;100.00
7930;BME280;4010;42.698;23.124;2023-01-29T04:12:44;118349.16;;;-140.64;100.00
7930;BME280;4010;42.698;23.124;2023-01-29T04:15:14;118349.16;;;-140.64;100.00
7930;BME280;4010;42.698;23.124;2023-01-29T04:17:48;118349.16;;;-140.64;100.00
7930;BME280;4010;42.698;23.124;2023-01-29T04:20:16;118349.16;;;-140.64;100.00
7930;BME280;4010;42.698;23.124;2023-01-29T04:22:45;118349.16;;;-140.64;100.00
7930;BME280;4010;42.698;23.124;2023-01-29T04:25:20;118349.16;;;-140.64;100.00
7930;BME280;4010;42.698;23.124;2023-01-29T04:27:56;118349.16;;;-140.64;100.00
7930;BME280;4010;42.698;23.124;2023-01-29T04:30:34;118349.16;;;-140.64;100.00
7930;BME280;4010;42.698;23.124;2023-01-29T04:33:11;118349.16;;;-140.64;100.00
7930;BME280;4010;42.698;23.124;2023-01-29T04:35:53;118349.16;;;-140.64;100.00
7930;BME280;4010;42.698;23.124;2023-01-29T04:38:35;118349.16;;;-140.64;100.00
7930;BME280;4010;42.698;23.124;2023-01-29T04:41:10;118349.16;;;-140.64;100.00
7930;BME280;4010;42.698;23.124;2023-01-29T04:43:46;118349.16;;;-140.64;100.00
7930;BME280;4010;42.698;23.124;2023-01-29T04:46:19;118349.16;;;-140.64;100.00
7930;BME280;4010;42.698;23.124;2023-01-29T04:49:09;118349.16;;;-140.64;100.00
7930;BME280;4010;42.698;23.124;2023-01-29T04:51:46;118349.16;;;-140.64;100.00
7930;BME280;4010;42.698;23.124;2023-01-29T04:54:19;118349.16;;;-140.64;100.00
7930;BME280;4010;42.698;23.124;2023-01-29T04:56:53;118349.16;;;-140.64;100.00
7930;BME280;4010;42.698;23.124;2023-01-29T04:59:26;118349.16;;;-140.64;100.00
7930;BME280;4010;42.698;23.124;2023-01-29T05:01:55;118349.16;;;-140.64;100.00
7930;BME280;4010;42.698;23.124;2023-01-29T05:04:24;118349.16;;;-140.64;100.00
7930;BME280;4010;42.698;23.124;2023-01-29T05:06:52;118349.16;;;-140.64;100.00
7930;BME280;4010;42.698;23.124;2023-01-29T05:09:21;118349.16;;;-140.64;100.00
7930;BME280;4010;42.698;23.124;2023-01-29T05:11:48;118349.16;;;-140.64;100.00
7930;BME280;4010;42.698;23.124;2023-01-29T05:14:17;118349.16;;;-140.64;100.00
7930;BME280;4010;42.698;23.124;2023-01-29T05:16:46;118349.16;;;-140.64;100.00
7930;BME280;4010;42.698;23.124;2023-01-29T05:19:15;118349.16;;;-140.64;100.00
7930;BME280;4010;42.698;23.124;2023-01-29T05:21:46;118349.16;;;-140.64;100.00
7930;BME280;4010;42.698;23.124;2023-01-29T05:24:15;118349.16;;;-140.64;100.00
7930;BME280;4010;42.698;23.124;2023-01-29T05:26:44;118349.16;;;-140.64;100.00
7930;BME280;4010;42.698;23.124;2023-01-29T05:29:29;118349.16;;;-140.64;100.00
7930;BME280;4010;42.698;23.124;2023-01-29T05:31:56;118349.16;;;-140.64;100.00
7930;BME280;4010;42.698;23.124;2023-01-29T05:34:22;118349.16;;;-140.64;100.00
7930;BME280;4010;42.698;23.124;2023-01-29T05:36:50;118349.16;;;-140.64;100.00
7930;BME280;4010;42.698;23.124;2023-01-29T05:39:17;118349.16;;;-140.64;100.00
7930;BME280;4010;42.698;23.124;2023-01-29T05:41:44;118349.16;;;-140.64;100.00
7930;BME280;4010;42.698;23.124;2023-01-29T05:44:11;118349.16;;;-140.64;100.00
7930;BME280;4010;42.698;23.124;2023-01-29T05:46:38;118349.16;;;-140.64;100.00
7930;BME280;4010;42.698;23.124;2023-01-29T05:49:05;118349.16;;;-140.64;100.00
7930;BME280;4010;42.698;23.124;2023-01-29T05:51:31;118349.16;;;-140.64;100.00
7930;BME280;4010;42.698;23.124;2023-01-29T05:53:59;118349.16;;;-140.64;100.00
7930;BME280;4010;42.698;23.124;2023-01-29T05:56:26;118349.16;;;-140.64;100.00
7930;BME280;4010;42.698;23.124;2023-01-29T05:58:54;118349.16;;;-140.64;100.00
7930;BME280;4010;42.698;23.124;2023-01-29T06:01:23;118349.16;;;-140.64;100.00
7930;BME280;4010;42.698;23.124;2023-01-29T06:03:50;118349.16;;;-140.64;100.00
7930;BME280;4010;42.698;23.124;2023-01-29T06:06:16;118349.16;;;-140.64;100.00
7930;BME280;4010;42.698;23.124;2023-01-29T06:08:43;118349.16;;;-140.64;100.00
7930;BME280;4010;42.698;23.124;2023-01-29T06:11:12;118349.16;;;-140.64;100.00
7930;BME280;4010;42.698;23.124;2023-01-29T06:13:39;118349.16;;;-140.64;100.00
7930;BME280;4010;42.698;23.124;2023-01-29T06:16:07;118349.16;;;-140.64;100.00
7930;BME280;4010;42.698;23.124;2023-01-29T06:18:35;118349.16;;;-140.64;100.00
7930;BME280;4010;42.698;23.124;2023-01-29T06:21:02;118349.16;;;-140.64;100.00
7930;BME280;4010;42.698;23.124;2023-01-29T06:23:29;118349.16;;;-140.64;100.00
7930;BME280;4010;42.698;23.124;2023-01-29T06:25:58;118349.16;;;-140.64;100.00
7930;BME280;4010;42.698;23.124;2023-01-29T06:28:27;118349.16;;;-140.64;100.00
7930;BME280;4010;42.698;23.124;2023-01-29T06:30:56;118349.16;;;-140.64;100.00
7930;BME280;4010;42.698;23.124;2023-01-29T06:33:22;118349.16;;;-140.64;100.00
7930;BME280;4010;42.698;23.124;2023-01-29T06:35:54;118349.16;;;-140.64;100.00
7930;BME280;4010;42.698;23.124;2023-01-29T06:38:21;118349.16;;;-140.64;100.00
7930;BME280;4010;42.698;23.124;2023-01-29T06:40:47;118349.16;;;-140.64;100.00
7930;BME280;4010;42.698;23.124;2023-01-29T06:43:14;118349.16;;;-140.64;100.00
7930;BME280;4010;42.698;23.124;2023-01-29T06:45:47;118349.16;;;-140.64;100.00
7930;BME280;4010;42.698;23.124;2023-01-29T06:48:13;118349.16;;;-140.64;100.00
7930;BME280;4010;42.698;23.124;2023-01-29T06:50:40;118349.16;;;-140.64;100.00
7930;BME280;4010;42.698;23.124;2023-01-29T06:53:07;118349.16;;;-140.64;100.00
7930;BME280;4010;42.698;23.124;2023-01-29T06:55:33;118349.16;;;-140.64;100.00
7930;BME280;4010;42.698;23.124;2023-01-29T06:58:04;118349.16;;;-140.64;100.00
7930;BME280;4010;42.698;23.124;2023-01-29T07:00:31;118349.16;;;-140.64;100.00
7930;BME280;4010;42.698;23.124;2023-01-29T07:02:59;118349.16;;;-140.64;100.00
7930;BME280;4010;42.698;23.124;2023-01-29T07:05:25;118349.16;;;-140.64;100.00
7930;BME280;4010;42.698;23.124;2023-01-29T07:07:52;118349.16;;;-140.64;100.00
7930;BME280;4010;42.698;23.124;2023-01-29T07:10:19;118349.16;;;-140.64;100.00
7930;BME280;4010;42.698;23.124;2023-01-29T07:12:45;118349.16;;;-140.64;100.00
7930;BME280;4010;42.698;23.124;2023-01-29T07:15:12;118349.16;;;-140.64;100.00
7930;BME280;4010;42.698;23.124;2023-01-29T07:17:43;118349.16;;;-140.64;100.00
7930;BME280;4010;42.698;23.124;2023-01-29T07:20:12;118349.16;;;-140.64;100.00
7930;BME280;4010;42.698;23.124;2023-01-29T07:22:38;118349.16;;;-140.64;100.00
7930;BME280;4010;42.698;23.124;2023-01-29T07:25:06;118349.16;;;-140.64;100.00
7930;BME280;4010;42.698;23.124;2023-01-29T07:27:33;118349.16;;;-140.64;100.00
7930;BME280;4010;42.698;23.124;2023-01-29T07:30:00;118349.16;;;-140.64;100.00
7930;BME280;4010;42.698;23.124;2023-01-29T07:32:27;118349.16;;;-140.64;100.00
7930;BME280;4010;42.698;23.124;2023-01-29T07:34:54;118349.16;;;-140.64;100.00
7930;BME280;4010;42.698;23.124;2023-01-29T07:37:22;118349.16;;;-140.64;100.00
7930;BME280;4010;42.698;23.124;2023-01-29T07:39:49;118349.16;;;-140.64;100.00
7930;BME280;4010;42.698;23.124;2023-01-29T07:42:15;118349.16;;;-140.64;100.00
7930;BME280;4010;42.698;23.124;2023-01-29T07:44:42;118349.16;;;-140.64;100.00
7930;BME280;4010;42.698;23.124;2023-01-29T07:47:09;118349.16;;;-140.64;100.00
7930;BME280;4010;42.698;23.124;2023-01-29T07:49:35;118349.16;;;-140.64;100.00
7930;BME280;4010;42.698;23.124;2023-01-29T07:52:02;118349.16;;;-140.64;100.00
7930;BME280;4010;42.698;23.124;2023-01-29T07:54:30;118349.16;;;-140.64;100.00
7930;BME280;4010;42.698;23.124;2023-01-29T07:56:57;118349.16;;;-140.64;100.00
7930;BME280;4010;42.698;23.124;2023-01-29T07:59:24;118349.16;;;-140.64;100.00
7930;BME280;4010;42.698;23.124;2023-01-29T08:01:50;118349.16;;;-140.64;100.00
7930;BME280;4010;42.698;23.124;2023-01-29T08:04:17;118349.16;;;-140.64;100.00
7930;BME280;4010;42.698;23.124;2023-01-29T08:06:44;118349.16;;;-140.64;100.00
7930;BME280;4010;42.698;23.124;2023-01-29T08:09:10;118349.16;;;-140.64;100.00
7930;BME280;4010;42.698;23.124;2023-01-29T08:11:38;118349.16;;;-140.64;100.00
7930;BME280;4010;42.698;23.124;2023-01-29T08:14:05;118349.16;;;-140.64;100.00
7930;BME280;4010;42.698;23.124;2023-01-29T08:16:33;118349.16;;;-140.64;100.00
7930;BME280;4010;42.698;23.124;2023-01-29T08:19:00;118349.16;;;-140.64;100.00
7930;BME280;4010;42.698;23.124;2023-01-29T08:21:27;118349.16;;;-140.64;100.00
7930;BME280;4010;42.698;23.124;2023-01-29T08:23:54;118349.16;;;-140.64;100.00
7930;BME280;4010;42.698;23.124;2023-01-29T08:26:21;118349.16;;;-140.64;100.00
7930;BME280;4010;42.698;23.124;2023-01-29T08:28:49;118349.16;;;-140.64;100.00
7930;BME280;4010;42.698;23.124;2023-01-29T08:31:16;118349.16;;;-140.64;100.00
7930;BME280;4010;42.698;23.124;2023-01-29T08:33:44;118349.16;;;-140.64;100.00
7930;BME280;4010;42.698;23.124;2023-01-29T08:36:11;118349.16;;;-140.64;100.00
7930;BME280;4010;42.698;23.124;2023-01-29T08:38:38;118349.16;;;-140.64;100.00
7930;BME280;4010;42.698;23.124;2023-01-29T08:41:05;118349.16;;;-140.64;100.00
7930;BME280;4010;42.698;23.124;2023-01-29T08:43:32;118349.16;;;-140.64;100.00
7930;BME280;4010;42.698;23.124;2023-01-29T08:46:02;118349.16;;;-140.64;100.00
7930;BME280;4010;42.698;23.124;2023-01-29T08:48:28;118349.16;;;-140.64;100.00
7930;BME280;4010;42.698;23.124;2023-01-29T08:50:56;118349.16;;;-140.64;100.00
7930;BME280;4010;42.698;23.124;2023-01-29T08:53:23;118349.16;;;-140.64;100.00
7930;BME280;4010;42.698;23.124;2023-01-29T08:55:50;118349.16;;;-140.64;100.00
7930;BME280;4010;42.698;23.124;2023-01-29T08:58:17;118349.16;;;-140.64;100.00
7930;BME280;4010;42.698;23.124;2023-01-29T09:00:44;118349.16;;;-140.64;100.00
7930;BME280;4010;42.698;23.124;2023-01-29T09:03:12;118349.16;;;-140.64;100.00
7930;BME280;4010;42.698;23.124;2023-01-29T09:05:39;118349.16;;;-140.64;100.00
7930;BME280;4010;42.698;23.124;2023-01-29T09:08:07;118349.16;;;-140.64;100.00
7930;BME280;4010;42.698;23.124;2023-01-29T09:10:35;118349.16;;;-140.64;100.00
7930;BME280;4010;42.698;23.124;2023-01-29T09:13:02;118349.16;;;-140.64;100.00
7930;BME280;4010;42.698;23.124;2023-01-29T09:15:29;118349.16;;;-140.64;100.00
7930;BME280;4010;42.698;23.124;2023-01-29T09:17:56;118349.16;;;-140.64;100.00
7930;BME280;4010;42.698;23.124;2023-01-29T09:20:24;118349.16;;;-140.64;100.00
7930;BME280;4010;42.698;23.124;2023-01-29T09:22:50;118349.16;;;-140.64;100.00
7930;BME280;4010;42.698;23.124;2023-01-29T09:25:20;118349.16;;;-140.64;100.00
7930;BME280;4010;42.698;23.124;2023-01-29T09:27:46;118349.16;;;-140.64;100.00
7930;BME280;4010;42.698;23.124;2023-01-29T09:30:13;118349.16;;;-140.64;100.00
7930;BME280;4010;42.698;23.124;2023-01-29T09:32:40;118349.16;;;-140.64;100.00
7930;BME280;4010;42.698;23.124;2023-01-29T09:35:07;118349.16;;;-140.64;100.00
7930;BME280;4010;42.698;23.124;2023-01-29T09:37:36;118349.16;;;-140.64;100.00
7930;BME280;4010;42.698;23.124;2023-01-29T09:40:03;118349.16;;;-140.64;100.00
7930;BME280;4010;42.698;23.124;2023-01-29T09:42:37;118349.16;;;-140.64;100.00
7930;BME280;4010;42.698;23.124;2023-01-29T09:45:12;118349.16;;;-140.64;100.00
7930;BME280;4010;42.698;23.124;2023-01-29T09:47:40;118349.16;;;-140.64;100.00
7930;BME280;4010;42.698;23.124;2023-01-29T09:50:13;118349.16;;;-140.64;99.84
7930;BME280;4010;42.698;23.124;2023-01-29T09:52:47;118349.16;;;-140.64;100.00
7930;BME280;4010;42.698;23.124;2023-01-29T09:55:21;118349.16;;;-140.64;100.00
7930;BME280;4010;42.698;23.124;2023-01-29T09:57:52;118349.16;;;-140.64;100.00
7930;BME280;4010;42.698;23.124;2023-01-29T10:00:23;118349.16;;;-140.64;100.00
7930;BME280;4010;42.698;23.124;2023-01-29T10:03:15;118349.16;;;-140.64;100.00
7930;BME280;4010;42.698;23.124;2023-01-29T10:05:58;118349.16;;;-140.64;100.00
7930;BME280;4010;42.698;23.124;2023-01-29T10:09:06;118349.16;;;-140.64;100.00
7930;BME280;4010;42.698;23.124;2023-01-29T10:11:45;118349.16;;;-140.64;100.00
7930;BME280;4010;42.698;23.124;2023-01-29T10:14:20;118349.16;;;-140.64;100.00
7930;BME280;4010;42.698;23.124;2023-01-29T10:17:00;118349.16;;;-140.64;100.00
7930;BME280;4010;42.698;23.124;2023-01-29T10:19:51;118349.16;;;-140.64;100.00
7930;BME280;4010;42.698;23.124;2023-01-29T10:22:44;118349.16;;;-140.64;100.00
7930;BME280;4010;42.698;23.124;2023-01-29T10:25:18;118349.16;;;-140.64;100.00
7930;BME280;4010;42.698;23.124;2023-01-29T10:27:48;118349.16;;;-140.64;100.00
7930;BME280;4010;42.698;23.124;2023-01-29T10:30:21;118349.16;;;-140.64;100.00
7930;BME280;4010;42.698;23.124;2023-01-29T10:32:49;118349.16;;;-140.64;100.00
7930;BME280;4010;42.698;23.124;2023-01-29T10:35:21;118349.16;;;-140.64;100.00
7930;BME280;4010;42.698;23.124;2023-01-29T10:37:51;118349.16;;;-140.64;100.00
7930;BME280;4010;42.698;23.124;2023-01-29T10:40:22;118349.16;;;-140.64;100.00
7930;BME280;4010;42.698;23.124;2023-01-29T10:42:57;118349.16;;;-140.64;100.00
7930;BME280;4010;42.698;23.124;2023-01-29T10:45:30;118349.16;;;-140.64;100.00
7930;BME280;4010;42.698;23.124;2023-01-29T10:48:19;118349.16;;;-140.64;100.00
7930;BME280;4010;42.698;23.124;2023-01-29T10:50:54;118349.16;;;-140.64;100.00
7930;BME280;4010;42.698;23.124;2023-01-29T10:53:32;118349.16;;;-140.64;100.00
7930;BME280;4010;42.698;23.124;2023-01-29T10:56:18;118349.16;;;-140.64;100.00
7930;BME280;4010;42.698;23.124;2023-01-29T10:58:50;118349.16;;;-140.64;100.00
7930;BME280;4010;42.698;23.124;2023-01-29T11:01:17;118349.16;;;-140.64;100.00
7930;BME280;4010;42.698;23.124;2023-01-29T11:03:44;118349.16;;;-140.64;100.00
7930;BME280;4010;42.698;23.124;2023-01-29T11:06:15;118349.16;;;-140.64;100.00
7930;BME280;4010;42.698;23.124;2023-01-29T11:08:48;118349.16;;;-140.64;100.00
7930;BME280;4010;42.698;23.124;2023-01-29T11:11:20;118349.16;;;-140.64;100.00
7930;BME280;4010;42.698;23.124;2023-01-29T11:14:08;118349.16;;;-140.64;100.00
7930;BME280;4010;42.698;23.124;2023-01-29T11:16:41;118349.16;;;-140.64;100.00
7930;BME280;4010;42.698;23.124;2023-01-29T11:19:08;118349.16;;;-140.64;100.00
7930;BME280;4010;42.698;23.124;2023-01-29T11:21:50;118349.16;;;-140.64;100.00
7930;BME280;4010;42.698;23.124;2023-01-29T11:24:17;118349.16;;;-140.64;100.00
7930;BME280;4010;42.698;23.124;2023-01-29T11:26:48;118349.16;;;-140.64;100.00
7930;BME280;4010;42.698;23.124;2023-01-29T11:29:36;118349.16;;;-140.64;100.00
7930;BME280;4010;42.698;23.124;2023-01-29T11:32:05;118349.16;;;-140.64;100.00
7930;BME280;4010;42.698;23.124;2023-01-29T11:34:32;118349.16;;;-140.64;100.00
7930;BME280;4010;42.698;23.124;2023-01-29T11:37:00;118349.16;;;-140.64;100.00
7930;BME280;4010;42.698;23.124;2023-01-29T11:39:27;118349.16;;;-140.64;100.00
7930;BME280;4010;42.698;23.124;2023-01-29T11:41:57;118349.16;;;-140.64;100.00
7930;BME280;4010;42.698;23.124;2023-01-29T11:44:30;118349.16;;;-140.64;100.00
7930;BME280;4010;42.698;23.124;2023-01-29T11:47:10;118349.16;;;-140.64;100.00
7930;BME280;4010;42.698;23.124;2023-01-29T11:49:38;118349.16;;;-140.64;100.00
7930;BME280;4010;42.698;23.124;2023-01-29T11:52:08;118349.16;;;-140.64;100.00
7930;BME280;4010;42.698;23.124;2023-01-29T11:54:38;118349.16;;;-140.64;99.69
7930;BME280;4010;42.698;23.124;2023-01-29T11:57:20;118349.16;;;-140.64;98.79
7930;BME280;4010;42.698;23.124;2023-01-29T11:59:50;118349.16;;;-140.64;98.64
7930;BME280;4010;42.698;23.124;2023-01-29T12:02:30;118349.16;;;-140.64;96.50
7930;BME280;4010;42.698;23.124;2023-01-29T12:05:01;118349.16;;;-140.64;96.73
7930;BME280;4010;42.698;23.124;2023-01-29T12:07:30;118349.16;;;-140.64;95.67
7930;BME280;4010;42.698;23.124;2023-01-29T12:09:58;118349.16;;;-140.64;94.81
7930;BME280;4010;42.698;23.124;2023-01-29T12:12:38;118349.16;;;-140.64;94.69
7930;BME280;4010;42.698;23.124;2023-01-29T12:15:16;118349.16;;;-140.64;94.35
7930;BME280;4010;42.698;23.124;2023-01-29T12:17:49;118349.16;;;-140.64;93.45
7930;BME280;4010;42.698;23.124;2023-01-29T12:20:22;118349.16;;;-140.64;94.09
7930;BME280;4010;42.698;23.124;2023-01-29T12:22:58;118349.16;;;-140.64;93.69
7930;BME280;4010;42.698;23.124;2023-01-29T12:25:35;118349.16;;;-140.64;94.82
7930;BME280;4010;42.698;23.124;2023-01-29T12:28:14;118349.16;;;-140.64;93.86
7930;BME280;4010;42.698;23.124;2023-01-29T12:31:07;118349.16;;;-140.64;94.39
7930;BME280;4010;42.698;23.124;2023-01-29T12:33:42;118349.16;;;-140.64;93.86
7930;BME280;4010;42.698;23.124;2023-01-29T12:36:17;118349.16;;;-140.64;94.29
7930;BME280;4010;42.698;23.124;2023-01-29T12:38:44;118349.16;;;-140.64;94.07
7930;BME280;4010;42.698;23.124;2023-01-29T12:41:24;118349.16;;;-140.64;96.29
7930;BME280;4010;42.698;23.124;2023-01-29T12:43:57;118349.16;;;-140.64;95.17
7930;BME280;4010;42.698;23.124;2023-01-29T12:46:28;118349.16;;;-140.64;95.17
7930;BME280;4010;42.698;23.124;2023-01-29T12:48:57;118349.16;;;-140.64;94.68
7930;BME280;4010;42.698;23.124;2023-01-29T12:51:30;118349.16;;;-140.64;95.46